sensor_id;sensor_type;location;lat;lon;timestamp;temperature;humidity
22491;DHT22;11412;50.802;4.350;2023-09-30T00:00:15;13.60;99.90
22491;DHT22;11412;50.802;4.350;2023-09-30T00:02:40;13.50;99.90
22491;DHT22;11412;50.802;4.350;2023-09-30T00:05:07;13.50;99.90
22491;DHT22;11412;50.802;4.350;2023-09-30T00:07:34;13.50;99.90
22491;DHT22;11412;50.802;4.350;2023-09-30T00:10:00;13.40;99.90
22491;DHT22;11412;50.802;4.350;2023-09-30T00:12:26;13.40;99.90
22491;DHT22;11412;50.802;4.350;2023-09-30T00:14:52;13.40;99.90
22491;DHT22;11412;50.802;4.350;2023-09-30T00:17:18;13.40;99.90
22491;DHT22;11412;50.802;4.350;2023-09-30T00:19:44;13.40;99.90
22491;DHT22;11412;50.802;4.350;2023-09-30T00:22:10;13.30;99.90
22491;DHT22;11412;50.802;4.350;2023-09-30T00:24:36;13.30;99.90
22491;DHT22;11412;50.802;4.350;2023-09-30T00:27:02;13.30;99.90
22491;DHT22;11412;50.802;4.350;2023-09-30T00:29:27;13.20;99.90
22491;DHT22;11412;50.802;4.350;2023-09-30T00:31:53;13.30;99.90
22491;DHT22;11412;50.802;4.350;2023-09-30T00:34:19;13.30;99.90
22491;DHT22;11412;50.802;4.350;2023-09-30T00:36:44;13.20;99.90
22491;DHT22;11412;50.802;4.350;2023-09-30T00:39:10;13.20;99.90
22491;DHT22;11412;50.802;4.350;2023-09-30T00:41:38;13.20;99.90
22491;DHT22;11412;50.802;4.350;2023-09-30T00:44:04;13.20;99.90
22491;DHT22;11412;50.802;4.350;2023-09-30T00:46:32;13.10;99.90
22491;DHT22;11412;50.802;4.350;2023-09-30T00:48:59;13.00;99.90
22491;DHT22;11412;50.802;4.350;2023-09-30T00:51:26;13.10;99.90
22491;DHT22;11412;50.802;4.350;2023-09-30T00:53:53;13.10;99.90
22491;DHT22;11412;50.802;4.350;2023-09-30T00:56:20;13.10;99.90
22491;DHT22;11412;50.802;4.350;2023-09-30T00:58:48;13.20;99.90
22491;DHT22;11412;50.802;4.350;2023-09-30T01:01:16;13.20;99.90
22491;DHT22;11412;50.802;4.350;2023-09-30T01:03:44;13.20;99.90
22491;DHT22;11412;50.802;4.350;2023-09-30T01:06:09;13.30;99.90
22491;DHT22;11412;50.802;4.350;2023-09-30T01:08:35;13.30;99.90
22491;DHT22;11412;50.802;4.350;2023-09-30T01:11:01;13.30;99.90
22491;DHT22;11412;50.802;4.350;2023-09-30T01:13:36;13.30;99.90
22491;DHT22;11412;50.802;4.350;2023-09-30T01:16:07;13.30;99.90
22491;DHT22;11412;50.802;4.350;2023-09-30T01:18:35;13.30;99.90
22491;DHT22;11412;50.802;4.350;2023-09-30T01:21:05;13.40;99.90
22491;DHT22;11412;50.802;4.350;2023-09-30T01:23:32;13.40;99.90
22491;DHT22;11412;50.802;4.350;2023-09-30T01:26:02;13.40;99.90
22491;DHT22;11412;50.802;4.350;2023-09-30T01:28:29;13.30;99.90
22491;DHT22;11412;50.802;4.350;2023-09-30T01:30:55;13.30;99.90
22491;DHT22;11412;50.802;4.350;2023-09-30T01:33:21;13.30;99.90
22491;DHT22;11412;50.802;4.350;2023-09-30T01:35:47;13.30;99.90
22491;DHT22;11412;50.802;4.350;2023-09-30T01:38:13;13.30;99.90
22491;DHT22;11412;50.802;4.350;2023-09-30T01:40:39;13.20;99.90
22491;DHT22;11412;50.802;4.350;2023-09-30T01:43:05;13.20;99.90
22491;DHT22;11412;50.802;4.350;2023-09-30T01:45:30;13.10;99.90
22491;DHT22;11412;50.802;4.350;2023-09-30T01:47:56;13.00;99.90
22491;DHT22;11412;50.802;4.350;2023-09-30T01:50:22;13.10;99.90
22491;DHT22;11412;50.802;4.350;2023-09-30T01:52:47;13.10;99.90
22491;DHT22;11412;50.802;4.350;2023-09-30T01:55:13;13.20;99.90
22491;DHT22;11412;50.802;4.350;2023-09-30T01:57:39;13.10;99.90
22491;DHT22;11412;50.802;4.350;2023-09-30T02:00:05;13.10;99.90
22491;DHT22;11412;50.802;4.350;2023-09-30T02:02:34;13.10;99.90
22491;DHT22;11412;50.802;4.350;2023-09-30T02:05:00;13.20;99.90
22491;DHT22;11412;50.802;4.350;2023-09-30T02:07:26;13.10;99.90
22491;DHT22;11412;50.802;4.350;2023-09-30T02:09:52;13.10;99.90
22491;DHT22;11412;50.802;4.350;2023-09-30T02:12:18;13.10;99.90
22491;DHT22;11412;50.802;4.350;2023-09-30T02:14:43;13.10;99.90
22491;DHT22;11412;50.802;4.350;2023-09-30T02:17:09;13.00;99.90
22491;DHT22;11412;50.802;4.350;2023-09-30T02:19:35;13.00;99.90
22491;DHT22;11412;50.802;4.350;2023-09-30T02:22:00;12.90;99.90
22491;DHT22;11412;50.802;4.350;2023-09-30T02:24:26;12.90;99.90
22491;DHT22;11412;50.802;4.350;2023-09-30T02:26:51;13.00;99.90
22491;DHT22;11412;50.802;4.350;2023-09-30T02:29:18;13.00;99.90
22491;DHT22;11412;50.802;4.350;2023-09-30T02:31:43;12.90;99.90
22491;DHT22;11412;50.802;4.350;2023-09-30T02:34:09;13.00;99.90
22491;DHT22;11412;50.802;4.350;2023-09-30T02:36:34;12.90;99.90
22491;DHT22;11412;50.802;4.350;2023-09-30T02:39:04;12.90;99.90
22491;DHT22;11412;50.802;4.350;2023-09-30T02:41:30;12.90;99.90
22491;DHT22;11412;50.802;4.350;2023-09-30T02:43:56;12.90;99.90
22491;DHT22;11412;50.802;4.350;2023-09-30T02:46:22;12.90;99.90
22491;DHT22;11412;50.802;4.350;2023-09-30T02:48:47;12.80;99.90
22491;DHT22;11412;50.802;4.350;2023-09-30T02:51:13;12.80;99.90
22491;DHT22;11412;50.802;4.350;2023-09-30T02:53:40;12.80;99.90
22491;DHT22;11412;50.802;4.350;2023-09-30T02:56:05;12.80;99.90
22491;DHT22;11412;50.802;4.350;2023-09-30T02:58:32;12.80;99.90
22491;DHT22;11412;50.802;4.350;2023-09-30T03:00:57;12.80;99.90
22491;DHT22;11412;50.802;4.350;2023-09-30T03:03:25;12.80;99.90
22491;DHT22;11412;50.802;4.350;2023-09-30T03:05:53;12.80;99.90
22491;DHT22;11412;50.802;4.350;2023-09-30T03:08:20;12.70;99.90
22491;DHT22;11412;50.802;4.350;2023-09-30T03:10:45;12.70;99.90
22491;DHT22;11412;50.802;4.350;2023-09-30T03:13:11;12.60;99.90
22491;DHT22;11412;50.802;4.350;2023-09-30T03:15:37;12.60;99.90
22491;DHT22;11412;50.802;4.350;2023-09-30T03:18:04;12.60;99.90
22491;DHT22;11412;50.802;4.350;2023-09-30T03:20:30;12.60;99.90
22491;DHT22;11412;50.802;4.350;2023-09-30T03:22:56;12.60;99.90
22491;DHT22;11412;50.802;4.350;2023-09-30T03:25:22;12.70;99.90
22491;DHT22;11412;50.802;4.350;2023-09-30T03:27:48;12.60;99.90
22491;DHT22;11412;50.802;4.350;2023-09-30T03:30:15;12.60;99.90
22491;DHT22;11412;50.802;4.350;2023-09-30T03:32:42;12.60;99.90
22491;DHT22;11412;50.802;4.350;2023-09-30T03:35:09;12.70;99.90
22491;DHT22;11412;50.802;4.350;2023-09-30T03:37:43;12.70;99.90
22491;DHT22;11412;50.802;4.350;2023-09-30T03:40:11;12.70;99.90
22491;DHT22;11412;50.802;4.350;2023-09-30T03:42:42;12.70;99.90
22491;DHT22;11412;50.802;4.350;2023-09-30T03:45:09;12.60;99.90
22491;DHT22;11412;50.802;4.350;2023-09-30T03:47:39;12.70;99.90
22491;DHT22;11412;50.802;4.350;2023-09-30T03:50:05;12.60;99.90
22491;DHT22;11412;50.802;4.350;2023-09-30T03:52:33;12.60;99.90
22491;DHT22;11412;50.802;4.350;2023-09-30T03:55:00;12.70;99.90
22491;DHT22;11412;50.802;4.350;2023-09-30T03:57:33;12.70;99.90
22491;DHT22;11412;50.802;4.350;2023-09-30T04:00:00;12.60;99.90
22491;DHT22;11412;50.802;4.350;2023-09-30T04:02:26;12.60;99.90
22491;DHT22;11412;50.802;4.350;2023-09-30T04:04:52;12.50;99.90
22491;DHT22;11412;50.802;4.350;2023-09-30T04:07:19;12.50;99.90
22491;DHT22;11412;50.802;4.350;2023-09-30T04:09:46;12.50;99.90
22491;DHT22;11412;50.802;4.350;2023-09-30T04:12:12;12.50;99.90
22491;DHT22;11412;50.802;4.350;2023-09-30T04:14:38;12.50;99.90
22491;DHT22;11412;50.802;4.350;2023-09-30T04:17:04;12.50;99.90
22491;DHT22;11412;50.802;4.350;2023-09-30T04:19:30;12.40;99.90
22491;DHT22;11412;50.802;4.350;2023-09-30T04:21:56;12.40;99.90
22491;DHT22;11412;50.802;4.350;2023-09-30T04:24:22;12.40;99.90
22491;DHT22;11412;50.802;4.350;2023-09-30T04:26:48;12.40;99.90
22491;DHT22;11412;50.802;4.350;2023-09-30T04:29:16;12.40;99.90
22491;DHT22;11412;50.802;4.350;2023-09-30T04:31:41;12.40;99.90
22491;DHT22;11412;50.802;4.350;2023-09-30T04:34:07;12.40;99.90
22491;DHT22;11412;50.802;4.350;2023-09-30T04:36:33;12.30;99.90
22491;DHT22;11412;50.802;4.350;2023-09-30T04:39:01;12.30;99.90
22491;DHT22;11412;50.802;4.350;2023-09-30T04:41:28;12.40;99.90
22491;DHT22;11412;50.802;4.350;2023-09-30T04:43:54;12.40;99.90
22491;DHT22;11412;50.802;4.350;2023-09-30T04:46:19;12.40;99.90
22491;DHT22;11412;50.802;4.350;2023-09-30T04:48:47;12.30;99.90
22491;DHT22;11412;50.802;4.350;2023-09-30T04:51:15;12.40;99.90
22491;DHT22;11412;50.802;4.350;2023-09-30T04:53:43;12.30;99.90
22491;DHT22;11412;50.802;4.350;2023-09-30T04:56:13;12.40;99.90
22491;DHT22;11412;50.802;4.350;2023-09-30T04:58:39;12.30;99.90
22491;DHT22;11412;50.802;4.350;2023-09-30T05:01:04;12.30;99.90
22491;DHT22;11412;50.802;4.350;2023-09-30T05:03:34;12.30;99.90
22491;DHT22;11412;50.802;4.350;2023-09-30T05:06:00;12.30;99.90
22491;DHT22;11412;50.802;4.350;2023-09-30T05:08:27;12.30;99.90
22491;DHT22;11412;50.802;4.350;2023-09-30T05:10:55;12.30;99.90
22491;DHT22;11412;50.802;4.350;2023-09-30T05:13:22;12.30;99.90
22491;DHT22;11412;50.802;4.350;2023-09-30T05:15:51;12.30;99.90
22491;DHT22;11412;50.802;4.350;2023-09-30T05:18:17;12.30;99.90
22491;DHT22;11412;50.802;4.350;2023-09-30T05:20:43;12.40;99.90
22491;DHT22;11412;50.802;4.350;2023-09-30T05:23:09;12.40;99.90
22491;DHT22;11412;50.802;4.350;2023-09-30T05:25:38;12.30;99.90
22491;DHT22;11412;50.802;4.350;2023-09-30T05:28:05;12.30;99.90
22491;DHT22;11412;50.802;4.350;2023-09-30T05:30:34;12.30;99.90
22491;DHT22;11412;50.802;4.350;2023-09-30T05:33:00;12.30;99.90
22491;DHT22;11412;50.802;4.350;2023-09-30T05:35:26;12.30;99.90
22491;DHT22;11412;50.802;4.350;2023-09-30T05:37:53;12.30;99.90
22491;DHT22;11412;50.802;4.350;2023-09-30T05:40:20;12.30;99.90
22491;DHT22;11412;50.802;4.350;2023-09-30T05:42:48;12.30;99.90
22491;DHT22;11412;50.802;4.350;2023-09-30T05:45:16;12.30;99.90
22491;DHT22;11412;50.802;4.350;2023-09-30T05:47:42;12.20;99.90
22491;DHT22;11412;50.802;4.350;2023-09-30T05:50:08;12.30;99.90
22491;DHT22;11412;50.802;4.350;2023-09-30T05:52:34;12.20;99.90
22491;DHT22;11412;50.802;4.350;2023-09-30T05:55:02;12.20;99.90
22491;DHT22;11412;50.802;4.350;2023-09-30T05:57:28;12.20;99.90
22491;DHT22;11412;50.802;4.350;2023-09-30T05:59:54;12.30;99.90
22491;DHT22;11412;50.802;4.350;2023-09-30T06:02:19;12.20;99.90
22491;DHT22;11412;50.802;4.350;2023-09-30T06:04:45;12.30;99.90
22491;DHT22;11412;50.802;4.350;2023-09-30T06:07:12;12.20;99.90
22491;DHT22;11412;50.802;4.350;2023-09-30T06:09:38;12.20;99.90
22491;DHT22;11412;50.802;4.350;2023-09-30T06:12:04;12.20;99.90
22491;DHT22;11412;50.802;4.350;2023-09-30T06:14:32;12.20;99.90
22491;DHT22;11412;50.802;4.350;2023-09-30T06:16:58;12.30;99.90
22491;DHT22;11412;50.802;4.350;2023-09-30T06:19:24;12.30;99.90
22491;DHT22;11412;50.802;4.350;2023-09-30T06:21:52;12.30;99.90
22491;DHT22;11412;50.802;4.350;2023-09-30T06:24:18;12.30;99.90
22491;DHT22;11412;50.802;4.350;2023-09-30T06:26:47;12.30;99.90
22491;DHT22;11412;50.802;4.350;2023-09-30T06:29:14;12.30;99.90
22491;DHT22;11412;50.802;4.350;2023-09-30T06:31:40;12.30;99.90
22491;DHT22;11412;50.802;4.350;2023-09-30T06:34:06;12.40;99.90
22491;DHT22;11412;50.802;4.350;2023-09-30T06:36:32;12.40;99.90
22491;DHT22;11412;50.802;4.350;2023-09-30T06:38:58;12.50;99.90
22491;DHT22;11412;50.802;4.350;2023-09-30T06:41:24;12.40;99.90
22491;DHT22;11412;50.802;4.350;2023-09-30T06:43:51;12.40;99.90
22491;DHT22;11412;50.802;4.350;2023-09-30T06:46:17;12.50;99.90
22491;DHT22;11412;50.802;4.350;2023-09-30T06:48:43;12.50;99.90
22491;DHT22;11412;50.802;4.350;2023-09-30T06:51:18;12.50;99.90
22491;DHT22;11412;50.802;4.350;2023-09-30T06:53:43;12.50;99.90
22491;DHT22;11412;50.802;4.350;2023-09-30T06:56:09;12.60;99.90
22491;DHT22;11412;50.802;4.350;2023-09-30T06:58:35;12.70;99.90
22491;DHT22;11412;50.802;4.350;2023-09-30T07:01:00;12.80;99.90
22491;DHT22;11412;50.802;4.350;2023-09-30T07:03:26;12.90;99.90
22491;DHT22;11412;50.802;4.350;2023-09-30T07:05:52;13.00;99.90
22491;DHT22;11412;50.802;4.350;2023-09-30T07:08:19;13.00;99.90
22491;DHT22;11412;50.802;4.350;2023-09-30T07:10:46;13.10;99.90
22491;DHT22;11412;50.802;4.350;2023-09-30T07:13:15;13.00;99.90
22491;DHT22;11412;50.802;4.350;2023-09-30T07:15:41;13.00;99.90
22491;DHT22;11412;50.802;4.350;2023-09-30T07:18:07;13.10;99.90
22491;DHT22;11412;50.802;4.350;2023-09-30T07:20:33;13.20;99.90
22491;DHT22;11412;50.802;4.350;2023-09-30T07:22:59;13.20;99.90
22491;DHT22;11412;50.802;4.350;2023-09-30T07:25:27;13.20;99.90
22491;DHT22;11412;50.802;4.350;2023-09-30T07:27:52;13.30;99.90
22491;DHT22;11412;50.802;4.350;2023-09-30T07:30:18;13.30;99.90
22491;DHT22;11412;50.802;4.350;2023-09-30T07:32:45;13.40;99.90
22491;DHT22;11412;50.802;4.350;2023-09-30T07:35:12;13.40;99.90
22491;DHT22;11412;50.802;4.350;2023-09-30T07:37:40;13.50;99.90
22491;DHT22;11412;50.802;4.350;2023-09-30T07:40:07;13.60;99.90
22491;DHT22;11412;50.802;4.350;2023-09-30T07:42:33;13.70;99.90
22491;DHT22;11412;50.802;4.350;2023-09-30T07:45:00;13.80;99.90
22491;DHT22;11412;50.802;4.350;2023-09-30T07:47:26;13.70;99.90
22491;DHT22;11412;50.802;4.350;2023-09-30T07:49:52;13.80;99.90
22491;DHT22;11412;50.802;4.350;2023-09-30T07:52:18;13.90;99.90
22491;DHT22;11412;50.802;4.350;2023-09-30T07:54:43;13.90;99.90
22491;DHT22;11412;50.802;4.350;2023-09-30T07:57:09;13.90;99.90
22491;DHT22;11412;50.802;4.350;2023-09-30T07:59:35;13.90;99.90
22491;DHT22;11412;50.802;4.350;2023-09-30T08:02:01;13.90;99.90
22491;DHT22;11412;50.802;4.350;2023-09-30T08:04:30;13.90;99.90
22491;DHT22;11412;50.802;4.350;2023-09-30T08:06:56;14.00;99.90
22491;DHT22;11412;50.802;4.350;2023-09-30T08:09:22;14.00;99.90
22491;DHT22;11412;50.802;4.350;2023-09-30T08:11:50;14.10;99.90
22491;DHT22;11412;50.802;4.350;2023-09-30T08:14:16;14.30;99.90
22491;DHT22;11412;50.802;4.350;2023-09-30T08:16:42;14.40;99.90
22491;DHT22;11412;50.802;4.350;2023-09-30T08:19:09;14.60;99.90
22491;DHT22;11412;50.802;4.350;2023-09-30T08:21:35;14.60;99.90
22491;DHT22;11412;50.802;4.350;2023-09-30T08:24:02;14.70;99.90
22491;DHT22;11412;50.802;4.350;2023-09-30T08:26:28;14.80;99.90
22491;DHT22;11412;50.802;4.350;2023-09-30T08:28:53;15.00;99.90
22491;DHT22;11412;50.802;4.350;2023-09-30T08:31:19;15.20;99.90
22491;DHT22;11412;50.802;4.350;2023-09-30T08:33:45;15.40;99.90
22491;DHT22;11412;50.802;4.350;2023-09-30T08:36:11;15.60;99.90
22491;DHT22;11412;50.802;4.350;2023-09-30T08:38:40;15.90;99.90
22491;DHT22;11412;50.802;4.350;2023-09-30T08:41:07;16.00;99.90
22491;DHT22;11412;50.802;4.350;2023-09-30T08:43:37;16.10;99.90
22491;DHT22;11412;50.802;4.350;2023-09-30T08:46:05;16.20;99.90
22491;DHT22;11412;50.802;4.350;2023-09-30T08:48:33;16.10;99.90
22491;DHT22;11412;50.802;4.350;2023-09-30T08:50:59;16.10;99.90
22491;DHT22;11412;50.802;4.350;2023-09-30T08:53:26;16.10;99.90
22491;DHT22;11412;50.802;4.350;2023-09-30T08:55:56;16.10;99.90
22491;DHT22;11412;50.802;4.350;2023-09-30T08:58:27;16.10;99.90
22491;DHT22;11412;50.802;4.350;2023-09-30T09:00:53;16.10;99.90
22491;DHT22;11412;50.802;4.350;2023-09-30T09:03:20;16.10;99.90
22491;DHT22;11412;50.802;4.350;2023-09-30T09:05:46;16.00;99.90
22491;DHT22;11412;50.802;4.350;2023-09-30T09:08:18;16.10;99.90
22491;DHT22;11412;50.802;4.350;2023-09-30T09:11:00;16.30;99.90
22491;DHT22;11412;50.802;4.350;2023-09-30T09:13:28;16.30;99.90
22491;DHT22;11412;50.802;4.350;2023-09-30T09:16:09;16.40;99.90
22491;DHT22;11412;50.802;4.350;2023-09-30T09:18:35;16.60;99.90
22491;DHT22;11412;50.802;4.350;2023-09-30T09:21:12;16.50;99.90
22491;DHT22;11412;50.802;4.350;2023-09-30T09:23:45;16.40;99.90
22491;DHT22;11412;50.802;4.350;2023-09-30T09:26:12;16.40;99.90
22491;DHT22;11412;50.802;4.350;2023-09-30T09:28:47;16.40;99.90
22491;DHT22;11412;50.802;4.350;2023-09-30T09:31:23;16.40;99.90
22491;DHT22;11412;50.802;4.350;2023-09-30T09:33:52;16.40;99.90
22491;DHT22;11412;50.802;4.350;2023-09-30T09:36:19;16.40;99.90
22491;DHT22;11412;50.802;4.350;2023-09-30T09:38:49;16.40;99.90
22491;DHT22;11412;50.802;4.350;2023-09-30T09:41:18;16.50;99.90
22491;DHT22;11412;50.802;4.350;2023-09-30T09:43:44;16.60;99.90
22491;DHT22;11412;50.802;4.350;2023-09-30T09:46:10;16.90;99.90
22491;DHT22;11412;50.802;4.350;2023-09-30T09:48:37;16.80;99.90
22491;DHT22;11412;50.802;4.350;2023-09-30T09:51:04;16.80;99.90
22491;DHT22;11412;50.802;4.350;2023-09-30T09:53:36;16.90;99.90
22491;DHT22;11412;50.802;4.350;2023-09-30T09:56:07;16.90;99.90
22491;DHT22;11412;50.802;4.350;2023-09-30T09:58:36;17.00;99.90
22491;DHT22;11412;50.802;4.350;2023-09-30T10:01:05;17.00;99.90
22491;DHT22;11412;50.802;4.350;2023-09-30T10:03:32;17.10;99.90
22491;DHT22;11412;50.802;4.350;2023-09-30T10:05:58;17.30;99.90
22491;DHT22;11412;50.802;4.350;2023-09-30T10:08:35;17.40;99.90
22491;DHT22;11412;50.802;4.350;2023-09-30T10:11:02;17.50;99.90
22491;DHT22;11412;50.802;4.350;2023-09-30T10:19:09;17.40;99.90
22491;DHT22;11412;50.802;4.350;2023-09-30T10:21:35;17.60;99.90
22491;DHT22;11412;50.802;4.350;2023-09-30T10:40:51;20.30;99.90
22491;DHT22;11412;50.802;4.350;2023-09-30T10:43:33;20.30;99.90
22491;DHT22;11412;50.802;4.350;2023-09-30T10:46:01;20.00;99.90
22491;DHT22;11412;50.802;4.350;2023-09-30T10:51:20;19.40;99.90
22491;DHT22;11412;50.802;4.350;2023-09-30T10:53:53;19.20;99.90
22491;DHT22;11412;50.802;4.350;2023-09-30T10:56:22;18.80;99.90
22491;DHT22;11412;50.802;4.350;2023-09-30T10:58:52;18.50;99.90
22491;DHT22;11412;50.802;4.350;2023-09-30T11:01:22;18.40;99.90
22491;DHT22;11412;50.802;4.350;2023-09-30T11:03:50;18.40;99.90
22491;DHT22;11412;50.802;4.350;2023-09-30T11:06:18;18.50;99.90
22491;DHT22;11412;50.802;4.350;2023-09-30T11:08:54;18.40;99.90
22491;DHT22;11412;50.802;4.350;2023-09-30T11:11:35;18.20;99.90
22491;DHT22;11412;50.802;4.350;2023-09-30T11:14:02;18.30;99.90
22491;DHT22;11412;50.802;4.350;2023-09-30T11:16:27;18.60;99.90
22491;DHT22;11412;50.802;4.350;2023-09-30T11:18:54;18.90;99.90
22491;DHT22;11412;50.802;4.350;2023-09-30T11:21:20;19.20;99.90
22491;DHT22;11412;50.802;4.350;2023-09-30T11:23:46;19.50;99.90
22491;DHT22;11412;50.802;4.350;2023-09-30T11:26:12;19.90;99.90
22491;DHT22;11412;50.802;4.350;2023-09-30T11:28:41;19.90;99.90
22491;DHT22;11412;50.802;4.350;2023-09-30T11:31:15;20.00;99.90
22491;DHT22;11412;50.802;4.350;2023-09-30T11:33:53;20.20;99.90
22491;DHT22;11412;50.802;4.350;2023-09-30T11:36:21;20.40;99.90
22491;DHT22;11412;50.802;4.350;2023-09-30T11:38:49;20.80;99.90
22491;DHT22;11412;50.802;4.350;2023-09-30T11:41:18;21.10;99.90
22491;DHT22;11412;50.802;4.350;2023-09-30T11:44:08;21.30;99.90
22491;DHT22;11412;50.802;4.350;2023-09-30T11:49:44;21.50;99.90
22491;DHT22;11412;50.802;4.350;2023-09-30T11:52:15;21.90;99.90
22491;DHT22;11412;50.802;4.350;2023-09-30T11:54:43;22.20;99.90
22491;DHT22;11412;50.802;4.350;2023-09-30T11:57:11;22.30;99.90
22491;DHT22;11412;50.802;4.350;2023-09-30T11:59:38;22.30;99.90
22491;DHT22;11412;50.802;4.350;2023-09-30T12:02:04;22.30;99.90
22491;DHT22;11412;50.802;4.350;2023-09-30T12:04:41;22.00;99.90
22491;DHT22;11412;50.802;4.350;2023-09-30T12:07:07;21.80;99.90
22491;DHT22;11412;50.802;4.350;2023-09-30T12:09:33;21.90;99.90
22491;DHT22;11412;50.802;4.350;2023-09-30T12:12:03;22.50;99.90
22491;DHT22;11412;50.802;4.350;2023-09-30T12:14:29;22.60;99.90
22491;DHT22;11412;50.802;4.350;2023-09-30T12:16:56;22.00;99.90
22491;DHT22;11412;50.802;4.350;2023-09-30T12:19:23;21.70;99.90
22491;DHT22;11412;50.802;4.350;2023-09-30T12:21:50;22.10;99.90
22491;DHT22;11412;50.802;4.350;2023-09-30T12:24:16;22.10;99.90
22491;DHT22;11412;50.802;4.350;2023-09-30T12:26:46;22.20;99.90
22491;DHT22;11412;50.802;4.350;2023-09-30T12:29:18;22.20;99.90
22491;DHT22;11412;50.802;4.350;2023-09-30T12:31:45;22.10;99.90
22491;DHT22;11412;50.802;4.350;2023-09-30T12:34:14;22.00;99.90
22491;DHT22;11412;50.802;4.350;2023-09-30T12:36:41;22.50;99.90
22491;DHT22;11412;50.802;4.350;2023-09-30T12:39:07;23.00;99.90
22491;DHT22;11412;50.802;4.350;2023-09-30T12:41:43;23.10;99.90
22491;DHT22;11412;50.802;4.350;2023-09-30T12:44:10;23.10;99.90
22491;DHT22;11412;50.802;4.350;2023-09-30T12:46:36;23.00;99.90
22491;DHT22;11412;50.802;4.350;2023-09-30T12:49:09;23.00;99.90
22491;DHT22;11412;50.802;4.350;2023-09-30T12:51:36;23.00;99.90
22491;DHT22;11412;50.802;4.350;2023-09-30T12:54:04;23.10;99.90
22491;DHT22;11412;50.802;4.350;2023-09-30T12:56:30;23.00;99.90
22491;DHT22;11412;50.802;4.350;2023-09-30T12:58:57;22.80;99.90
22491;DHT22;11412;50.802;4.350;2023-09-30T13:01:23;22.70;99.90
22491;DHT22;11412;50.802;4.350;2023-09-30T13:03:49;22.60;99.90
22491;DHT22;11412;50.802;4.350;2023-09-30T13:06:15;22.30;99.90
22491;DHT22;11412;50.802;4.350;2023-09-30T13:08:42;22.20;99.90
22491;DHT22;11412;50.802;4.350;2023-09-30T13:11:08;22.50;99.90
22491;DHT22;11412;50.802;4.350;2023-09-30T13:13:34;22.30;99.90
22491;DHT22;11412;50.802;4.350;2023-09-30T13:16:01;22.10;99.90
22491;DHT22;11412;50.802;4.350;2023-09-30T13:18:27;22.50;99.90
22491;DHT22;11412;50.802;4.350;2023-09-30T13:20:53;22.50;99.90
22491;DHT22;11412;50.802;4.350;2023-09-30T13:23:20;22.70;99.90
22491;DHT22;11412;50.802;4.350;2023-09-30T13:25:46;22.60;99.90
22491;DHT22;11412;50.802;4.350;2023-09-30T13:28:13;22.50;99.90
22491;DHT22;11412;50.802;4.350;2023-09-30T13:30:39;22.20;99.90
22491;DHT22;11412;50.802;4.350;2023-09-30T13:33:04;22.00;99.90
22491;DHT22;11412;50.802;4.350;2023-09-30T13:35:30;22.10;99.90
22491;DHT22;11412;50.802;4.350;2023-09-30T13:37:57;22.10;99.90
22491;DHT22;11412;50.802;4.350;2023-09-30T13:40:22;21.90;99.90
22491;DHT22;11412;50.802;4.350;2023-09-30T13:42:48;21.80;99.90
22491;DHT22;11412;50.802;4.350;2023-09-30T13:45:14;21.90;99.90
22491;DHT22;11412;50.802;4.350;2023-09-30T13:47:43;22.20;99.90
22491;DHT22;11412;50.802;4.350;2023-09-30T13:50:09;22.50;99.90
22491;DHT22;11412;50.802;4.350;2023-09-30T13:52:35;22.70;99.90
22491;DHT22;11412;50.802;4.350;2023-09-30T13:55:01;22.80;99.90
22491;DHT22;11412;50.802;4.350;2023-09-30T13:57:29;22.90;99.90
22491;DHT22;11412;50.802;4.350;2023-09-30T13:59:56;22.80;99.90
22491;DHT22;11412;50.802;4.350;2023-09-30T14:02:22;22.60;99.90
22491;DHT22;11412;50.802;4.350;2023-09-30T14:04:48;22.40;99.90
22491;DHT22;11412;50.802;4.350;2023-09-30T14:07:14;22.40;99.90
22491;DHT22;11412;50.802;4.350;2023-09-30T14:09:40;22.00;99.90
22491;DHT22;11412;50.802;4.350;2023-09-30T14:12:06;22.30;99.90
22491;DHT22;11412;50.802;4.350;2023-09-30T14:14:33;22.60;99.90
22491;DHT22;11412;50.802;4.350;2023-09-30T14:17:02;23.00;99.90
22491;DHT22;11412;50.802;4.350;2023-09-30T14:19:36;23.40;99.90
22491;DHT22;11412;50.802;4.350;2023-09-30T14:22:02;23.30;99.90
22491;DHT22;11412;50.802;4.350;2023-09-30T14:24:30;23.10;99.90
22491;DHT22;11412;50.802;4.350;2023-09-30T14:26:56;22.70;99.90
22491;DHT22;11412;50.802;4.350;2023-09-30T14:29:22;22.60;99.90
22491;DHT22;11412;50.802;4.350;2023-09-30T14:31:47;22.60;99.90
22491;DHT22;11412;50.802;4.350;2023-09-30T14:34:13;22.30;99.90
22491;DHT22;11412;50.802;4.350;2023-09-30T14:36:40;22.20;99.90
22491;DHT22;11412;50.802;4.350;2023-09-30T14:39:06;22.00;99.90
22491;DHT22;11412;50.802;4.350;2023-09-30T14:41:32;22.00;99.90
22491;DHT22;11412;50.802;4.350;2023-09-30T14:43:58;22.00;99.90
22491;DHT22;11412;50.802;4.350;2023-09-30T14:46:24;22.10;99.90
22491;DHT22;11412;50.802;4.350;2023-09-30T14:48:49;22.00;99.90
22491;DHT22;11412;50.802;4.350;2023-09-30T14:51:15;21.70;99.90
22491;DHT22;11412;50.802;4.350;2023-09-30T14:53:41;21.50;99.90
22491;DHT22;11412;50.802;4.350;2023-09-30T14:56:24;21.30;99.90
22491;DHT22;11412;50.802;4.350;2023-09-30T14:58:50;21.00;99.90
22491;DHT22;11412;50.802;4.350;2023-09-30T15:01:15;21.00;99.90
22491;DHT22;11412;50.802;4.350;2023-09-30T15:03:41;20.80;99.90
22491;DHT22;11412;50.802;4.350;2023-09-30T15:06:09;20.80;99.90
22491;DHT22;11412;50.802;4.350;2023-09-30T15:08:35;20.80;99.90
22491;DHT22;11412;50.802;4.350;2023-09-30T15:11:01;20.60;99.90
22491;DHT22;11412;50.802;4.350;2023-09-30T15:13:28;20.80;99.90
22491;DHT22;11412;50.802;4.350;2023-09-30T15:15:54;20.70;99.90
22491;DHT22;11412;50.802;4.350;2023-09-30T15:18:20;20.50;99.90
22491;DHT22;11412;50.802;4.350;2023-09-30T15:20:45;20.40;99.90
22491;DHT22;11412;50.802;4.350;2023-09-30T15:23:13;20.50;99.90
22491;DHT22;11412;50.802;4.350;2023-09-30T15:25:45;20.50;99.90
22491;DHT22;11412;50.802;4.350;2023-09-30T15:28:11;20.40;99.90
22491;DHT22;11412;50.802;4.350;2023-09-30T15:30:38;20.30;99.90
22491;DHT22;11412;50.802;4.350;2023-09-30T15:33:04;20.10;99.90
22491;DHT22;11412;50.802;4.350;2023-09-30T15:35:30;20.00;99.90
22491;DHT22;11412;50.802;4.350;2023-09-30T15:37:56;19.90;99.90
22491;DHT22;11412;50.802;4.350;2023-09-30T15:40:23;19.90;99.90
22491;DHT22;11412;50.802;4.350;2023-09-30T15:42:49;20.20;99.90
22491;DHT22;11412;50.802;4.350;2023-09-30T15:45:15;20.30;99.90
22491;DHT22;11412;50.802;4.350;2023-09-30T15:47:43;20.40;99.90
22491;DHT22;11412;50.802;4.350;2023-09-30T15:50:09;20.20;99.90
22491;DHT22;11412;50.802;4.350;2023-09-30T15:52:36;20.10;99.90
22491;DHT22;11412;50.802;4.350;2023-09-30T15:55:02;20.30;99.90
22491;DHT22;11412;50.802;4.350;2023-09-30T15:57:27;20.30;99.90